createdAt,value
2019-02-15T00:03:48.871Z,982.7
2019-02-15T00:13:52.275Z,982.5
2019-02-15T00:23:55.728Z,982.3
2019-02-15T00:33:59.187Z,982.1
2019-02-15T00:44:02.659Z,982.6
2019-02-15T00:54:06.094Z,982.7
2019-02-15T01:04:09.506Z,982.7
2019-02-15T01:14:13.936Z,983
2019-02-15T01:24:17.365Z,982.9
2019-02-15T01:34:20.805Z,975.2
2019-02-15T01:44:24.262Z,975.2
2019-02-15T01:54:27.679Z,975.1
2019-02-15T02:04:31.126Z,975.1
2019-02-15T02:14:34.583Z,975.1
2019-02-15T02:24:38.028Z,975
2019-02-15T02:34:41.472Z,975.1
2019-02-15T02:44:44.918Z,975.3
2019-02-15T02:54:48.320Z,975.5
2019-02-15T03:04:51.774Z,975.3
2019-02-15T03:14:55.240Z,975.3
2019-02-15T03:24:58.696Z,975.7
2019-02-15T03:35:02.193Z,975.7
2019-02-15T03:45:05.676Z,975.7
2019-02-15T03:55:09.144Z,975.9
2019-02-15T04:05:12.610Z,975.7
2019-02-15T04:15:16.090Z,976.1
2019-02-15T04:25:19.587Z,976
2019-02-15T04:35:24.048Z,976
2019-02-15T04:45:27.613Z,976.1
2019-02-15T04:55:31.050Z,976.2
2019-02-15T05:05:34.540Z,976.2
2019-02-15T05:15:38.025Z,977
2019-02-15T05:25:41.458Z,976.8
2019-02-15T05:35:44.898Z,976.7
2019-02-15T05:45:48.373Z,976.8
2019-02-15T05:55:52.784Z,976.8
2019-02-15T06:05:56.277Z,976.8
2019-02-15T06:15:59.737Z,977.1
2019-02-15T06:26:03.266Z,977.1
2019-02-15T06:36:06.740Z,977.5
2019-02-15T06:46:10.180Z,977.3
2019-02-15T06:56:13.648Z,977.5
2019-02-15T07:06:17.062Z,977.7
2019-02-15T07:16:20.485Z,976.9
2019-02-15T07:26:23.958Z,982
2019-02-15T07:36:27.408Z,980.5
2019-02-15T07:46:30.850Z,979.3
2019-02-15T07:56:34.279Z,978.1
2019-02-15T08:06:38.696Z,977.1
2019-02-15T08:16:42.147Z,976.7
2019-02-15T08:26:46.604Z,983.2
2019-02-15T08:36:50.029Z,982.5
2019-02-15T08:46:53.441Z,981.7
2019-02-15T08:56:56.899Z,981.5
2019-02-15T09:07:00.328Z,980.4
2019-02-15T09:17:03.734Z,980.2
2019-02-15T09:27:07.175Z,979.9
2019-02-15T09:37:10.607Z,979.9
2019-02-15T09:47:14.038Z,980
2019-02-15T09:57:17.448Z,980.1
2019-02-15T10:07:20.905Z,979.3
2019-02-15T10:17:24.346Z,979.2
2019-02-15T10:27:27.767Z,978.9
2019-02-15T10:37:31.235Z,979.6
2019-02-15T10:47:34.654Z,979.7
2019-02-15T10:57:38.045Z,979.8
2019-02-15T11:07:41.521Z,980.6
2019-02-15T11:17:44.948Z,979.9
2019-02-15T11:27:48.402Z,980
2019-02-15T11:37:51.842Z,979.9
2019-02-15T11:47:55.299Z,979.9
2019-02-15T11:57:58.737Z,979.4
2019-02-15T12:08:02.210Z,980.3
2019-02-15T12:18:05.653Z,980.5
2019-02-15T12:28:09.091Z,980.2
2019-02-15T12:38:12.543Z,979.4
2019-02-15T12:48:16.001Z,979.5
2019-02-15T12:58:19.466Z,979.4
2019-02-15T13:08:22.912Z,978.8
2019-02-15T13:18:26.355Z,978.6
2019-02-15T13:28:29.843Z,978.2
2019-02-15T13:38:33.291Z,978
2019-02-15T13:48:36.692Z,977.8
2019-02-15T13:58:40.104Z,977.6
2019-02-15T14:08:43.557Z,977.4
2019-02-15T14:18:46.995Z,977.4
2019-02-15T14:28:50.473Z,977.2
2019-02-15T14:38:53.895Z,977.3
2019-02-15T14:48:57.326Z,977
2019-02-15T14:59:00.734Z,977.2
2019-02-15T15:09:04.208Z,976.9
2019-02-15T15:19:07.603Z,977
2019-02-15T15:29:11.040Z,977.1
2019-02-15T15:39:14.500Z,977
2019-02-15T15:49:17.955Z,977.1
2019-02-15T15:59:21.414Z,977.2
2019-02-15T16:09:25.341Z,977
2019-02-15T16:19:28.859Z,977
2019-02-15T16:29:32.273Z,977.1
2019-02-15T16:39:35.702Z,977.4
2019-02-15T16:49:39.139Z,977.4
2019-02-15T16:59:42.562Z,977.8
2019-02-15T17:09:45.986Z,978.3
2019-02-15T17:19:49.441Z,978.9
2019-02-15T17:29:52.893Z,979.4
2019-02-15T17:39:56.310Z,979.8
2019-02-15T17:49:59.756Z,972.4
2019-02-15T18:00:03.192Z,972.6
2019-02-15T18:10:06.635Z,973.3
2019-02-15T18:20:10.096Z,973.3
2019-02-15T18:30:13.538Z,973.7
2019-02-15T18:40:16.935Z,973.8
2019-02-15T18:50:20.374Z,974.3
2019-02-15T19:00:23.860Z,974.4
2019-02-15T19:10:27.305Z,974.5
2019-02-15T19:20:30.770Z,974.7
2019-02-15T19:30:34.212Z,975
2019-02-15T19:40:37.613Z,975.1
2019-02-15T19:50:41.045Z,975.4
2019-02-15T20:00:44.556Z,975.6
2019-02-15T20:10:47.992Z,975.7
2019-02-15T20:20:51.457Z,975.6
2019-02-15T20:30:54.906Z,975.9
2019-02-15T20:40:58.353Z,975.9
2019-02-15T20:51:01.793Z,976.3
2019-02-15T21:01:05.205Z,976.2
2019-02-15T21:11:08.777Z,976.3
2019-02-15T21:21:12.247Z,976.5
2019-02-15T21:31:15.674Z,976.6
2019-02-15T21:41:19.102Z,976.6
2019-02-15T21:51:22.530Z,976.5
2019-02-15T22:01:25.937Z,976.8
2019-02-15T22:11:29.379Z,977.3
2019-02-15T22:21:32.795Z,977.7
2019-02-15T22:31:36.249Z,977.5
2019-02-15T22:41:39.693Z,977.7
2019-02-15T22:51:44.158Z,978
2019-02-15T23:01:47.615Z,978.3
2019-02-15T23:11:51.056Z,978.4
2019-02-15T23:21:54.494Z,978.5
2019-02-15T23:31:57.934Z,978.6
2019-02-15T23:42:01.337Z,979
2019-02-15T23:52:04.753Z,979
